Pixley, California
Current Conditions -  °F | °C
As of 1:55 AM on Tuesday 21 Oct 2014 (Local Time) from KPTV Reporting Station
Clear Clear  
Wind Chill: 14°   Ceiling: Unl
Heat Index: 14°   Visibility: 10mi
Dew Point:   Wind: 7mph
Humidity: 72%   Direction: 250°WSW
Pressure: 30.03"   Gusts: NA
Location:  35.97°N, 119.29°W
Report Text: KPTV 210855Z 25006KT 10SM CLR 14/09 A3003 RMK AO1 52010
Loading
Personal Weather Stations






























Interactive Weather Map
Tropical Storm Tracking
New forecast layout! Learn more

10-Day Weather Forecast

Advertisements
Track Severe Weather on mobile